LFSN/ENC METAR and TAF weather

Enter ICAO airport designator
Station Type Date Time Source
LFSN METAR 2019/11/15 05:30 UTC NOAA

LFSN 150530Z AUTO VRB02KT 9999 OVC017/// ///TCU 04/02 Q0995


Station Type Date Time Source
LFSN Decoded METAR 2019/11/15 05:30 UTC NOAA

Nancy / Essey, France (LFSN) 48-41N 006-13E 217M
Nov 15, 2019 - 12:30 AM EST / 2019.11.15 0530 UTC
Wind: Variable at 2 MPH (2 KT):0
Visibility: greater than 7 mile(s):0
Sky conditions: overcast
Weather: Towering cumulus clouds observed
Temperature: 39 F (4 C)
Dew Point: 35 F (2 C)
Relative Humidity: 86%
Pressure (altimeter): 29.38 in. Hg (0995 hPa)
ob: LFSN 150530Z AUTO VRB02KT 9999 OVC017/// ///TCU 04/02 Q0995
cycle: 5

Station Type Date Time Source
LFSN TAF 2012/03/14 16:58 UTC NOAA

TAF LFSN 141600Z 1416/1512 CNL

Example: see airport list